createdAt,value
2019-06-15T00:00:48.083Z,99657.39
2019-06-15T00:03:19.891Z,99649.53
2019-06-15T00:05:51.895Z,99650.50
2019-06-15T00:08:24.148Z,99650.66
2019-06-15T00:10:55.978Z,99643.91
2019-06-15T00:13:27.682Z,99640.69
2019-06-15T00:16:00.202Z,99645.72
2019-06-15T00:18:31.930Z,99649.89
2019-06-15T00:21:03.812Z,99653.94
2019-06-15T00:23:35.673Z,99656.84
2019-06-15T00:26:07.396Z,99662.17
2019-06-15T00:28:40.592Z,99664.14
2019-06-15T00:31:12.960Z,99674.19
2019-06-15T00:33:44.609Z,99670.53
2019-06-15T00:36:16.231Z,99664.34
2019-06-15T00:38:47.880Z,99667.65
2019-06-15T00:41:20.837Z,99674.09
2019-06-15T00:43:52.754Z,99681.34
2019-06-15T00:46:25.265Z,99679.66
2019-06-15T00:48:57.172Z,99680.78
2019-06-15T00:51:28.871Z,99679.62
2019-06-15T00:54:00.639Z,99667.57
2019-06-15T00:56:32.288Z,99665.87
2019-06-15T00:59:04.130Z,99653.55
2019-06-15T01:01:36.671Z,99649.09
2019-06-15T01:04:08.313Z,99651.90
2019-06-15T01:06:40.420Z,99656.61
2019-06-15T01:09:12.108Z,99638.16
2019-06-15T01:11:43.818Z,99633.81
2019-06-15T01:14:15.472Z,99637.44
2019-06-15T01:16:47.872Z,99622.59
2019-06-15T01:19:19.494Z,99611.95
2019-06-15T01:21:51.653Z,99603.26
2019-06-15T01:24:23.420Z,99609.66
2019-06-15T01:26:55.114Z,99593.72
2019-06-15T01:29:27.102Z,99589.41
2019-06-15T01:31:59.387Z,99588.68
2019-06-15T01:34:31.122Z,99583.49
2019-06-15T01:37:03.233Z,99573.02
2019-06-15T01:39:34.978Z,99574.83
2019-06-15T01:42:06.619Z,99588.11
2019-06-15T01:44:38.512Z,99574.39
2019-06-15T01:47:10.908Z,99587.39
2019-06-15T01:49:42.910Z,99590.90
2019-06-15T01:52:14.572Z,99593.27
2019-06-15T01:54:46.217Z,99572.61
2019-06-15T01:57:17.949Z,99572.45
2019-06-15T01:59:49.676Z,99582.12
2019-06-15T02:02:22.188Z,99582.00
2019-06-15T02:04:53.908Z,99582.84
2019-06-15T02:07:25.574Z,99600.35
2019-06-15T02:09:57.222Z,99603.02
2019-06-15T02:12:28.885Z,99596.73
2019-06-15T02:15:00.656Z,99603.26
2019-06-15T02:17:32.846Z,99599.59
2019-06-15T02:20:06.309Z,99588.04
2019-06-15T02:22:37.923Z,99587.59
2019-06-15T02:25:09.972Z,99587.03
2019-06-15T02:27:41.685Z,99592.86
2019-06-15T02:30:14.351Z,99599.29
2019-06-15T02:32:46.087Z,99602.80
2019-06-15T02:35:18.110Z,99599.29
2019-06-15T02:37:49.885Z,99608.95
2019-06-15T02:40:21.828Z,99613.42
2019-06-15T02:42:53.494Z,99612.58
2019-06-15T02:45:26.479Z,99614.27
2019-06-15T02:47:58.276Z,99622.23
2019-06-15T02:50:30.630Z,99620.39
2019-06-15T02:53:02.299Z,99612.58
2019-06-15T02:55:33.961Z,99629.14
2019-06-15T02:58:05.786Z,99660.10
2019-06-15T03:00:50.659Z,99690.32
2019-06-15T03:03:22.311Z,99695.55
2019-06-15T03:05:55.184Z,99723.44
2019-06-15T03:08:27.313Z,99803.41
2019-06-15T03:10:58.962Z,99805.58
2019-06-15T03:13:30.705Z,99824.64
2019-06-15T03:16:02.412Z,99841.78
2019-06-15T03:18:34.429Z,99836.73
2019-06-15T03:21:06.568Z,99836.95
2019-06-15T03:23:38.297Z,99844.42
2019-06-15T03:26:09.991Z,99845.52
2019-06-15T03:28:41.592Z,99854.44
2019-06-15T03:31:13.341Z,99853.59
2019-06-15T03:33:45.056Z,99846.48
2019-06-15T03:36:17.088Z,99849.88
2019-06-15T03:38:48.927Z,99861.19
2019-06-15T03:41:20.673Z,99865.43
2019-06-15T03:43:52.495Z,99874.09
2019-06-15T03:46:24.151Z,99876.53
2019-06-15T03:48:55.832Z,99873.73
2019-06-15T03:51:29.747Z,99883.17
2019-06-15T03:54:01.440Z,99893.53
2019-06-15T03:56:33.207Z,99878.34
2019-06-15T03:59:04.881Z,99890.41
2019-06-15T04:01:45.310Z,99891.95
2019-06-15T04:04:17.043Z,99896.20
2019-06-15T04:06:49.144Z,99895.13
2019-06-15T04:09:20.783Z,99915.30
2019-06-15T04:11:52.540Z,99910.47
2019-06-15T04:14:26.068Z,99912.16
2019-06-15T04:16:59.307Z,99924.59
2019-06-15T04:19:32.488Z,99926.77
2019-06-15T04:22:06.180Z,99943.89
2019-06-15T04:24:38.503Z,99950.53
2019-06-15T04:27:11.847Z,99939.42
2019-06-15T04:29:45.112Z,99944.25
2019-06-15T04:32:17.079Z,99957.90
2019-06-15T04:34:48.710Z,99959.92
2019-06-15T04:37:20.373Z,99957.63
2019-06-15T04:39:52.350Z,99962.30
2019-06-15T04:42:24.057Z,99961.73
2019-06-15T04:44:55.837Z,99959.55
2019-06-15T04:47:27.684Z,99969.91
2019-06-15T04:49:59.365Z,99971.50
2019-06-15T04:52:31.365Z,99956.13
2019-06-15T04:55:04.082Z,99963.72
2019-06-15T04:57:35.727Z,99970.23
2019-06-15T05:00:09.394Z,99984.59
2019-06-15T05:02:41.097Z,99994.73
2019-06-15T05:05:13.251Z,99997.39
2019-06-15T05:07:45.074Z,99997.53
2019-06-15T05:10:17.420Z,99991.37
2019-06-15T05:12:49.312Z,99982.54
2019-06-15T05:15:21.136Z,99984.23
2019-06-15T05:17:52.862Z,99982.39
2019-06-15T05:20:24.879Z,99992.22
2019-06-15T05:22:56.515Z,99980.73
2019-06-15T05:25:28.885Z,99968.13
2019-06-15T05:28:00.540Z,99975.88
2019-06-15T05:30:32.768Z,99967.62
2019-06-15T05:33:04.566Z,99976.33
2019-06-15T05:35:36.219Z,99988.52
2019-06-15T05:38:07.929Z,99987.83
2019-06-15T05:40:40.232Z,99992.99
2019-06-15T05:43:12.215Z,99998.08
2019-06-15T05:45:44.133Z,100008.45
2019-06-15T05:48:15.825Z,100014.36
2019-06-15T05:50:47.557Z,100006.14
2019-06-15T05:53:19.239Z,100006.02
2019-06-15T05:55:51.717Z,100006.02
2019-06-15T05:58:23.930Z,100015.44
2019-06-15T06:00:55.828Z,100030.55
2019-06-15T06:03:28.469Z,100046.41
2019-06-15T06:06:01.164Z,100045.28
2019-06-15T06:08:32.780Z,100049.53
2019-06-15T06:11:05.321Z,100066.95
2019-06-15T06:13:35.953Z,100073.47
2019-06-15T06:16:06.635Z,100080.92
2019-06-15T06:18:38.354Z,100090.56
2019-06-15T06:21:10.252Z,100096.18
2019-06-15T06:23:42.034Z,100095.06
2019-06-15T06:26:13.888Z,100087.08
2019-06-15T06:28:56.929Z,100091.64
2019-06-15T06:31:19.134Z,100093.75
2019-06-15T06:33:51.227Z,100090.72
2019-06-15T06:36:23.351Z,100107.16
2019-06-15T06:38:55.060Z,100108.58
2019-06-15T06:41:26.882Z,100112.66
2019-06-15T06:43:58.791Z,100105.91
2019-06-15T06:46:30.548Z,100121.50
2019-06-15T06:49:02.269Z,100132.17
2019-06-15T06:51:34.390Z,100132.17
2019-06-15T06:54:06.514Z,100131.05
2019-06-15T06:56:38.194Z,100144.01
2019-06-15T06:59:10.075Z,100140.53
2019-06-15T07:01:41.996Z,100157.30
2019-06-15T07:04:13.820Z,100148.63
2019-06-15T07:06:45.557Z,100155.98
2019-06-15T07:09:17.353Z,100157.27
2019-06-15T07:11:49.206Z,100167.37
2019-06-15T07:14:24.078Z,100166.39
2019-06-15T07:16:55.754Z,100166.27
2019-06-15T07:19:27.839Z,100174.41
2019-06-15T07:21:59.757Z,100172.70
2019-06-15T07:24:31.940Z,100183.01
2019-06-15T07:27:03.641Z,100185.83
2019-06-15T07:29:35.597Z,100176.58
2019-06-15T07:32:07.268Z,100193.20
2019-06-15T07:34:38.990Z,100188.75
2019-06-15T07:37:10.665Z,100196.05
2019-06-15T07:39:42.400Z,100196.44
2019-06-15T07:42:14.248Z,100197.70
2019-06-15T07:44:46.240Z,100202.91
2019-06-15T07:47:17.939Z,100203.22
2019-06-15T07:49:49.754Z,100211.27
2019-06-15T07:52:21.638Z,100209.45
2019-06-15T07:54:53.416Z,100211.97
2019-06-15T07:57:25.217Z,100219.30
2019-06-15T07:59:57.058Z,100229.14
2019-06-15T08:02:28.702Z,100229.44
2019-06-15T08:05:01.343Z,100235.89
2019-06-15T08:07:33.100Z,100235.20
2019-06-15T08:10:05.814Z,100241.83
2019-06-15T08:12:37.476Z,100248.70
2019-06-15T08:15:10.340Z,100254.05
2019-06-15T08:17:45.424Z,100253.37
2019-06-15T08:20:18.240Z,100256.17
2019-06-15T08:22:49.892Z,100251.67
2019-06-15T08:25:21.954Z,100250.83
2019-06-15T08:27:53.869Z,100250.69
2019-06-15T08:30:39.887Z,100253.63
2019-06-15T08:33:11.712Z,100259.40
2019-06-15T08:35:43.718Z,100266.31
2019-06-15T08:38:15.411Z,100259.01
2019-06-15T08:40:47.267Z,100255.06
2019-06-15T08:43:18.941Z,100267.28
2019-06-15T08:45:50.757Z,100276.61
2019-06-15T08:48:22.665Z,100263.23
2019-06-15T08:50:54.556Z,100270.13
2019-06-15T08:53:26.229Z,100268.69
2019-06-15T08:55:58.039Z,100264.44
2019-06-15T08:58:29.779Z,100277.25
2019-06-15T09:01:01.726Z,100282.70
2019-06-15T09:03:33.818Z,100287.78
2019-06-15T09:06:05.562Z,100287.34
2019-06-15T09:08:37.376Z,100293.81
2019-06-15T09:11:09.119Z,100283.91
2019-06-15T09:13:40.817Z,100294.43
2019-06-15T09:16:12.592Z,100297.91
2019-06-15T09:18:45.039Z,100292.66
2019-06-15T09:21:16.778Z,100303.39
2019-06-15T09:23:48.605Z,100296.47
2019-06-15T09:26:20.373Z,100312.16
2019-06-15T09:28:52.278Z,100316.67
2019-06-15T09:31:24.644Z,100311.31
2019-06-15T09:33:56.473Z,100308.91
2019-06-15T09:36:28.240Z,100311.89
2019-06-15T09:38:59.910Z,100309.66
2019-06-15T09:41:31.828Z,100317.12
2019-06-15T09:44:03.549Z,100317.84
2019-06-15T09:46:35.879Z,100310.64
2019-06-15T09:49:07.684Z,100315.87
2019-06-15T09:51:39.479Z,100318.23
2019-06-15T09:54:11.288Z,100316.09
2019-06-15T09:56:42.966Z,100314.84
2019-06-15T09:59:25.552Z,100322.15
2019-06-15T10:01:48.709Z,100321.11
2019-06-15T10:04:22.380Z,100320.38
2019-06-15T10:06:55.577Z,100327.20
2019-06-15T10:09:28.985Z,100328.83
2019-06-15T10:12:01.140Z,100331.89
2019-06-15T10:14:33.650Z,100334.12
2019-06-15T10:17:06.338Z,100339.20
2019-06-15T10:19:38.195Z,100341.03
2019-06-15T10:22:09.970Z,100339.94
2019-06-15T10:24:41.684Z,100350.59
2019-06-15T10:27:13.504Z,100346.81
2019-06-15T10:29:46.075Z,100348.65
2019-06-15T10:32:18.198Z,100353.73
2019-06-15T10:34:51.145Z,100361.91
2019-06-15T10:37:23.168Z,100369.82
2019-06-15T10:39:55.211Z,100368.20
2019-06-15T10:42:26.903Z,100360.95
2019-06-15T10:44:58.647Z,100369.52
2019-06-15T10:47:32.647Z,100363.38
2019-06-15T10:50:04.842Z,100378.34
2019-06-15T10:52:37.104Z,100366.91
2019-06-15T10:55:09.954Z,100368.07
2019-06-15T10:57:42.558Z,100363.16
2019-06-15T11:00:17.367Z,100366.70
2019-06-15T11:02:49.050Z,100371.00
2019-06-15T11:05:22.613Z,100362.25
2019-06-15T11:07:54.904Z,100369.30
2019-06-15T11:10:42.339Z,100373.37
2019-06-15T11:13:14.047Z,100380.11
2019-06-15T11:15:46.142Z,100379.83
2019-06-15T11:18:17.975Z,100374.04
2019-06-15T11:20:50.206Z,100369.91
2019-06-15T11:23:22.306Z,100368.45
2019-06-15T11:25:54.939Z,100369.08
2019-06-15T11:28:26.609Z,100378.58
2019-06-15T11:30:58.578Z,100378.67
2019-06-15T11:33:30.754Z,100373.67
2019-06-15T11:36:02.653Z,100368.30
2019-06-15T11:38:35.049Z,100378.95
2019-06-15T11:41:07.262Z,100386.34
2019-06-15T11:43:38.998Z,100382.42
2019-06-15T11:46:10.805Z,100377.73
2019-06-15T11:48:42.520Z,100382.66
2019-06-15T11:51:14.389Z,100387.95
2019-06-15T11:53:46.241Z,100380.33
2019-06-15T11:56:18.175Z,100379.88
2019-06-15T11:58:49.876Z,100390.11
2019-06-15T12:01:21.683Z,100381.64
2019-06-15T12:03:53.585Z,100366.37
2019-06-15T12:06:25.358Z,100373.06
2019-06-15T12:08:57.177Z,100378.05
2019-06-15T12:11:29.110Z,100377.20
2019-06-15T12:14:00.891Z,100379.89
2019-06-15T12:16:32.610Z,100382.11
2019-06-15T12:19:04.555Z,100382.28
2019-06-15T12:21:36.269Z,100381.19
2019-06-15T12:24:08.095Z,100382.08
2019-06-15T12:26:40.010Z,100372.07
2019-06-15T12:29:11.853Z,100369.75
2019-06-15T12:31:44.047Z,100363.71
2019-06-15T12:34:16.446Z,100374.61
2019-06-15T12:36:48.252Z,100366.70
2019-06-15T12:39:19.986Z,100367.17
2019-06-15T12:41:51.942Z,100363.79
2019-06-15T12:44:24.046Z,100363.53
2019-06-15T12:46:55.836Z,100367.98
2019-06-15T12:49:27.522Z,100369.70
2019-06-15T12:51:59.389Z,100349.80
2019-06-15T12:54:31.140Z,100353.86
2019-06-15T12:57:03.388Z,100355.42
2019-06-15T12:59:35.283Z,100354.12
2019-06-15T13:02:07.398Z,100360.65
2019-06-15T13:04:39.137Z,100355.76
2019-06-15T13:07:10.937Z,100358.58
2019-06-15T13:09:42.683Z,100365.23
2019-06-15T13:12:14.488Z,100354.42
2019-06-15T13:14:46.377Z,100358.80
2019-06-15T13:17:18.129Z,100359.49
2019-06-15T13:19:49.981Z,100351.12
2019-06-15T13:22:21.737Z,100351.79
2019-06-15T13:24:53.520Z,100343.06
2019-06-15T13:27:25.295Z,100352.48
2019-06-15T13:29:57.168Z,100351.79
2019-06-15T13:32:28.917Z,100353.81
2019-06-15T13:35:00.702Z,100343.06
2019-06-15T13:37:41.663Z,100339.34
2019-06-15T13:40:06.208Z,100336.35
2019-06-15T13:42:37.926Z,100330.83
2019-06-15T13:45:10.664Z,100331.48
2019-06-15T13:47:42.432Z,100346.98
2019-06-15T13:50:15.818Z,100340.47
2019-06-15T13:52:47.614Z,100344.55
2019-06-15T13:55:22.015Z,100347.45
2019-06-15T13:57:53.938Z,100351.03
2019-06-15T14:00:25.963Z,100351.38
2019-06-15T14:02:57.771Z,100346.69
2019-06-15T14:05:29.744Z,100338.27
2019-06-15T14:08:01.456Z,100346.03
2019-06-15T14:10:33.239Z,100341.49
2019-06-15T14:13:05.002Z,100338.80
2019-06-15T14:15:36.856Z,100323.83
2019-06-15T14:18:08.677Z,100327.53
2019-06-15T14:20:40.476Z,100328.27
2019-06-15T14:23:12.280Z,100330.25
2019-06-15T14:25:44.013Z,100332.95
2019-06-15T14:28:16.056Z,100325.22
2019-06-15T14:30:47.744Z,100321.68
2019-06-15T14:33:19.599Z,100324.38
2019-06-15T14:35:51.298Z,100326.38
2019-06-15T14:38:23.011Z,100329.92
2019-06-15T14:40:54.796Z,100327.42
2019-06-15T14:43:26.564Z,100328.58
2019-06-15T14:45:59.914Z,100332.44
2019-06-15T14:48:31.853Z,100317.28
2019-06-15T14:51:03.614Z,100319.81
2019-06-15T14:53:36.684Z,100312.42
2019-06-15T14:56:08.905Z,100320.50
2019-06-15T14:58:40.639Z,100317.44
2019-06-15T15:01:12.291Z,100314.77
2019-06-15T15:03:47.089Z,100317.77
2019-06-15T15:06:17.799Z,100315.27
2019-06-15T15:08:49.634Z,100314.42
2019-06-15T15:11:21.298Z,100311.05
2019-06-15T15:13:53.061Z,100303.12
2019-06-15T15:16:25.061Z,100302.81
2019-06-15T15:18:58.084Z,100305.31
2019-06-15T15:21:30.005Z,100304.66
2019-06-15T15:24:01.693Z,100290.86
2019-06-15T15:26:33.664Z,100288.99
2019-06-15T15:29:07.020Z,100296.73
2019-06-15T15:31:38.940Z,100284.46
2019-06-15T15:34:11.195Z,100281.23
2019-06-15T15:36:42.952Z,100286.81
2019-06-15T15:39:16.721Z,100285.97
2019-06-15T15:41:48.364Z,100279.74
2019-06-15T15:44:20.079Z,100280.40
2019-06-15T15:46:51.870Z,100280.92
2019-06-15T15:49:23.772Z,100273.34
2019-06-15T15:51:56.632Z,100279.06
2019-06-15T15:54:28.481Z,100271.33
2019-06-15T15:57:00.218Z,100276.20
2019-06-15T15:59:32.025Z,100277.20
2019-06-15T16:02:03.754Z,100266.63
2019-06-15T16:04:37.095Z,100256.53
2019-06-15T16:07:08.909Z,100269.30
2019-06-15T16:09:41.122Z,100272.32
2019-06-15T16:12:12.863Z,100270.14
2019-06-15T16:14:44.619Z,100275.46
2019-06-15T16:17:16.655Z,100281.34
2019-06-15T16:19:48.922Z,100275.12
2019-06-15T16:22:20.778Z,100260.01
2019-06-15T16:24:52.504Z,100260.01
2019-06-15T16:27:26.363Z,100262.86
2019-06-15T16:29:57.763Z,100259.32
2019-06-15T16:32:29.516Z,100255.94
2019-06-15T16:35:01.336Z,100257.78
2019-06-15T16:37:33.179Z,100250.06
2019-06-15T16:40:05.364Z,100246.68
2019-06-15T16:42:37.059Z,100237.27
2019-06-15T16:45:08.963Z,100242.80
2019-06-15T16:47:40.699Z,100240.11
2019-06-15T16:50:12.744Z,100244.84
2019-06-15T16:52:46.805Z,100247.52
2019-06-15T16:55:18.033Z,100246.68
2019-06-15T16:57:49.758Z,100240.45
2019-06-15T17:00:21.953Z,100257.44
2019-06-15T17:02:54.378Z,100261.97
2019-06-15T17:05:27.447Z,100275.58
2019-06-15T17:07:59.422Z,100276.77
2019-06-15T17:10:38.712Z,100288.02
2019-06-15T17:13:10.926Z,100279.91
2019-06-15T17:15:42.872Z,100289.31
2019-06-15T17:18:14.747Z,100292.64
2019-06-15T17:20:51.587Z,100293.25
2019-06-15T17:23:23.271Z,100290.54
2019-06-15T17:25:55.316Z,100285.31
2019-06-15T17:28:27.378Z,100292.72
2019-06-15T17:30:59.697Z,100281.42
2019-06-15T17:33:37.544Z,100279.73
2019-06-15T17:36:06.832Z,100269.16
2019-06-15T17:38:38.761Z,100279.73
2019-06-15T17:41:11.000Z,100275.20
2019-06-15T17:43:42.929Z,100266.84
2019-06-15T17:46:16.499Z,100260.28
2019-06-15T17:48:48.280Z,100276.41
2019-06-15T17:51:20.490Z,100268.34
2019-06-15T17:53:52.254Z,100270.38
2019-06-15T17:56:26.658Z,100265.99
2019-06-15T17:58:57.578Z,100263.61
2019-06-15T18:01:29.281Z,100263.09
2019-06-15T18:04:01.305Z,100261.74
2019-06-15T18:06:33.042Z,100266.61
2019-06-15T18:09:06.604Z,100258.19
2019-06-15T18:11:38.536Z,100252.45
2019-06-15T18:14:10.442Z,100249.38
2019-06-15T18:16:42.267Z,100253.56
2019-06-15T18:19:16.785Z,100256.89
2019-06-15T18:21:47.619Z,100252.80
2019-06-15T18:24:19.591Z,100252.41
2019-06-15T18:26:51.570Z,100262.63
2019-06-15T18:29:23.393Z,100262.41
2019-06-15T18:31:56.686Z,100271.13
2019-06-15T18:34:28.445Z,100265.53
2019-06-15T18:37:00.312Z,100277.03
2019-06-15T18:39:32.600Z,100287.55
2019-06-15T18:42:04.387Z,100286.49
2019-06-15T18:44:36.643Z,100285.27
2019-06-15T18:47:08.514Z,100285.18
2019-06-15T18:49:40.203Z,100286.63
2019-06-15T18:52:12.116Z,100288.76
2019-06-15T18:54:46.632Z,100280.19
2019-06-15T18:57:18.106Z,100276.27
2019-06-15T18:59:49.853Z,100267.14
2019-06-15T19:02:21.618Z,100269.44
2019-06-15T19:04:53.360Z,100278.92
2019-06-15T19:07:26.997Z,100275.02
2019-06-15T19:09:59.190Z,100272.97
2019-06-15T19:12:31.336Z,100269.05
2019-06-15T19:15:03.577Z,100271.62
2019-06-15T19:17:37.064Z,100273.48
2019-06-15T19:20:10.564Z,100278.75
2019-06-15T19:22:42.522Z,100278.63
2019-06-15T19:25:16.186Z,100275.87
2019-06-15T19:27:48.063Z,100281.81
2019-06-15T19:30:20.503Z,100275.34
2019-06-15T19:32:52.394Z,100278.77
2019-06-15T19:35:26.328Z,100281.89
2019-06-15T19:37:58.185Z,100283.31
2019-06-15T19:40:30.071Z,100286.56
2019-06-15T19:43:02.075Z,100288.09
2019-06-15T19:45:33.936Z,100299.38
2019-06-15T19:48:06.877Z,100301.80
2019-06-15T19:50:38.929Z,100314.77
2019-06-15T19:53:10.629Z,100312.48
2019-06-15T19:55:42.741Z,100325.32
2019-06-15T19:58:16.767Z,100332.63
2019-06-15T20:00:50.336Z,100333.91
2019-06-15T20:03:23.675Z,100336.88
2019-06-15T20:05:56.954Z,100333.78
2019-06-15T20:08:30.389Z,100327.16
2019-06-15T20:11:04.021Z,100324.91
2019-06-15T20:13:37.048Z,100328.99
2019-06-15T20:16:09.048Z,100335.45
2019-06-15T20:18:40.868Z,100327.95
2019-06-15T20:21:12.852Z,100319.50
2019-06-15T20:23:46.859Z,100328.10
2019-06-15T20:26:18.216Z,100328.48
2019-06-15T20:28:50.093Z,100336.80
2019-06-15T20:31:21.955Z,100335.11
2019-06-15T20:33:53.849Z,100333.41
2019-06-15T20:36:26.898Z,100329.88
2019-06-15T20:39:01.011Z,100328.06
2019-06-15T20:41:32.775Z,100334.98
2019-06-15T20:44:04.764Z,100348.22
2019-06-15T20:46:37.253Z,100351.73
2019-06-15T20:49:09.420Z,100360.45
2019-06-15T20:51:41.217Z,100362.99
2019-06-15T20:54:12.987Z,100377.21
2019-06-15T20:56:46.171Z,100390.58
2019-06-15T20:59:17.927Z,100387.19
2019-06-15T21:01:49.668Z,100400.68
2019-06-15T21:04:21.452Z,100400.97
2019-06-15T21:06:53.470Z,100409.27
2019-06-15T21:09:27.528Z,100404.05
2019-06-15T21:11:58.977Z,100412.33
2019-06-15T21:14:30.764Z,100416.01
2019-06-15T21:17:02.683Z,100422.33
2019-06-15T21:19:36.065Z,100430.47
2019-06-15T21:22:08.170Z,100418.80
2019-06-15T21:24:39.896Z,100418.80
2019-06-15T21:27:11.945Z,100416.98
2019-06-15T21:29:43.771Z,100411.07
2019-06-15T21:32:16.115Z,100417.52
2019-06-15T21:34:47.925Z,100418.90
2019-06-15T21:37:19.693Z,100416.64
2019-06-15T21:39:51.542Z,100418.02
2019-06-15T21:42:23.428Z,100430.93
2019-06-15T21:44:56.222Z,100436.55
2019-06-15T21:47:28.135Z,100449.19
2019-06-15T21:49:59.868Z,100464.25
2019-06-15T21:52:31.961Z,100459.75
2019-06-15T21:55:03.661Z,100463.97
2019-06-15T21:57:36.529Z,100475.50
2019-06-15T22:00:13.527Z,100495.78
2019-06-15T22:02:47.189Z,100488.59
2019-06-15T22:05:21.887Z,100496.61
2019-06-15T22:07:56.638Z,100506.59
2019-06-15T22:10:27.990Z,100499.55
2019-06-15T22:12:59.869Z,100509.39
2019-06-15T22:15:31.948Z,100507.69
2019-06-15T22:18:03.780Z,100510.36
2019-06-15T22:20:35.988Z,100514.61
2019-06-15T22:23:07.918Z,100509.97
2019-06-15T22:25:39.728Z,100517.73
2019-06-15T22:28:11.963Z,100513.24
2019-06-15T22:30:46.235Z,100515.91
2019-06-15T22:33:17.831Z,100517.86
2019-06-15T22:35:49.576Z,100528.55
2019-06-15T22:38:21.343Z,100540.36
2019-06-15T22:40:53.302Z,100540.48
2019-06-15T22:43:27.129Z,100545.95
2019-06-15T22:45:58.591Z,100559.59
2019-06-15T22:48:30.464Z,100574.03
2019-06-15T22:51:02.309Z,100575.16
2019-06-15T22:53:36.493Z,100577.84
2019-06-15T22:56:08.057Z,100594.11
2019-06-15T22:58:39.772Z,100599.37
2019-06-15T23:01:11.759Z,100608.27
2019-06-15T23:03:46.321Z,100606.48
2019-06-15T23:06:16.968Z,100599.34
2019-06-15T23:08:48.827Z,100601.92
2019-06-15T23:11:20.578Z,100596.25
2019-06-15T23:13:52.234Z,100596.82
2019-06-15T23:16:26.758Z,100597.31
2019-06-15T23:18:57.827Z,100595.50
2019-06-15T23:21:29.928Z,100598.91
2019-06-15T23:24:01.768Z,100597.94
2019-06-15T23:26:33.514Z,100607.27
2019-06-15T23:29:06.948Z,100602.52
2019-06-15T23:31:38.956Z,100605.70
2019-06-15T23:34:10.771Z,100604.35
2019-06-15T23:36:54.273Z,100609.80
2019-06-15T23:39:17.954Z,100604.69
2019-06-15T23:41:49.948Z,100614.63
2019-06-15T23:44:27.016Z,100605.26
2019-06-15T23:47:01.973Z,100618.95
2019-06-15T23:49:36.526Z,100625.48
2019-06-15T23:52:07.632Z,100630.17
2019-06-15T23:54:39.518Z,100638.31
2019-06-15T23:57:14.028Z,100641.80
2019-06-15T23:59:46.542Z,100644.45
